Rosedale, IN (47874)

02:09 EDT le 29 mai 2015 (GMT -0400)
GUITAR LAKE | | Change Station
CLOSE
Current Station
Stations météorologiques personnelles
Location: BRAZIL, IN
Altitude: 650 ft
Stations météo à proximité

Alt. 650 ft 39.48 °N, 87.17 °W | Updated 4 seconds ago

Ciel dégagé
Ciel dégagé
68.9 ° F
Paraît 68.9 ° F
N
1.6
Vent Variable Vent de Sud
Gusts 3.1 mph

Aujourd'hui
Haut(e) -- | Bas -- ° F
--% Risque de précip.
Hier
Haut(e) -- | Bas -- ° F
Precip. -- pouce
6:24 AM 9:08 PM
Lune gibbeuse croissante, 81% visible
Pression 30.09 pouce
Visibilité 10.0 Miles terrestres
Nuages Ciel dégagé
Point de rosée 66 ° F
Humidité 92%
Précipitations 0.00 pouce
Profondeur de la couche neigeuse Non disponible.
UV 0 sur 12
Pollen 8.40 sur 12
Qualité de l'air Non disponible.
Flu Activity Sporadic
METAR KHUF 290553Z 16006KT 10SM CLR 22/18 A3010 RMK AO2 SLP187 T02170178 10267 20217 55006

More Conditions Fewer Conditions

Pression 30.09 pouce
Visibilité 10.0 Miles terrestres
Nuages Ciel dégagé
Point de rosée 66 ° F
Humidité 92%
Précipitations 0.00 pouce
Profondeur de la couche neigeuse Non disponible.
UV 0 sur 12
Pollen 8.40 sur 12
Qualité de l'air Non disponible.
Flu Activity Sporadic
METAR KHUF 290553Z 16006KT 10SM CLR 22/18 A3010 RMK AO2 SLP187 T02170178 10267 20217 55006

More Conditions Fewer Conditions

10-Day Weather Forecast

Almanac

Astronomie

May. 29, 2015 Lever Coucher
Temps réel
Crépuscule civil
Crépuscule nautique
Crépuscule astronomique
Lune
Durée de lumière visible
Longueur du jour
Tomorrow will be .
, % of the Moon is Illuminated

Extrêmes aujourd'hui

State Highs State Lows

Community

WunderPhotos

Upload Photos

1,825,215 Photos téléchargées !

WunderBlogs® & News

Nearby

Qualité de l'air

  Qualité de l'air Indice de la qualité de l'air Polluant
Not available.

Épaisseur de neige

Station Depth Altitude

Activité sismique

Ville Distance Mag. Time & Date
Minimum magnitude displayed is 2.5.

Températures des eaux côtières

Lieu Température

Stations

Stations météo à proximité

Emplacement de la station Température Refroidissement éolien Point de rosée Humidité Vent Precip. Alt. Mise à jour Type